sensor_id;sensor_type;location;lat;lon;timestamp;P1;durP1;ratioP1;P2;durP2;ratioP2
60014;SDS011;45867;52.480;6.056;2023-02-28T00:02:16;15.32;;;3.58;;
60014;SDS011;45867;52.480;6.056;2023-02-28T00:04:44;6.57;;;2.95;;
60014;SDS011;45867;52.480;6.056;2023-02-28T00:07:10;7.70;;;3.67;;
60014;SDS011;45867;52.480;6.056;2023-02-28T00:09:35;7.43;;;3.45;;
60014;SDS011;45867;52.480;6.056;2023-02-28T00:12:00;5.18;;;3.08;;
60014;SDS011;45867;52.480;6.056;2023-02-28T00:14:35;10.38;;;3.28;;
60014;SDS011;45867;52.480;6.056;2023-02-28T00:17:02;9.77;;;3.30;;
60014;SDS011;45867;52.480;6.056;2023-02-28T00:19:27;8.52;;;3.35;;
60014;SDS011;45867;52.480;6.056;2023-02-28T00:21:53;6.28;;;3.35;;
60014;SDS011;45867;52.480;6.056;2023-02-28T00:24:18;6.57;;;3.40;;
60014;SDS011;45867;52.480;6.056;2023-02-28T00:26:43;8.70;;;3.60;;
60014;SDS011;45867;52.480;6.056;2023-02-28T00:29:09;12.80;;;3.67;;
60014;SDS011;45867;52.480;6.056;2023-02-28T00:31:35;7.30;;;3.08;;
60014;SDS011;45867;52.480;6.056;2023-02-28T00:34:00;9.48;;;3.47;;
60014;SDS011;45867;52.480;6.056;2023-02-28T00:36:25;6.63;;;3.30;;
60014;SDS011;45867;52.480;6.056;2023-02-28T00:38:51;8.13;;;3.72;;
60014;SDS011;45867;52.480;6.056;2023-02-28T00:41:16;8.13;;;3.33;;
60014;SDS011;45867;52.480;6.056;2023-02-28T00:43:41;4.65;;;3.00;;
60014;SDS011;45867;52.480;6.056;2023-02-28T00:46:07;7.20;;;3.40;;
60014;SDS011;45867;52.480;6.056;2023-02-28T00:48:33;6.97;;;3.10;;
60014;SDS011;45867;52.480;6.056;2023-02-28T00:50:58;7.80;;;3.35;;
60014;SDS011;45867;52.480;6.056;2023-02-28T00:53:23;10.13;;;3.80;;
60014;SDS011;45867;52.480;6.056;2023-02-28T00:55:49;12.25;;;4.18;;
60014;SDS011;45867;52.480;6.056;2023-02-28T00:58:15;6.68;;;3.42;;
60014;SDS011;45867;52.480;6.056;2023-02-28T01:00:40;6.38;;;3.20;;
60014;SDS011;45867;52.480;6.056;2023-02-28T01:03:05;9.63;;;3.35;;
60014;SDS011;45867;52.480;6.056;2023-02-28T01:05:31;8.05;;;3.47;;
60014;SDS011;45867;52.480;6.056;2023-02-28T01:07:56;10.43;;;3.28;;
60014;SDS011;45867;52.480;6.056;2023-02-28T01:10:21;7.35;;;3.45;;
60014;SDS011;45867;52.480;6.056;2023-02-28T01:12:47;7.68;;;3.42;;
60014;SDS011;45867;52.480;6.056;2023-02-28T01:15:12;10.82;;;3.50;;
60014;SDS011;45867;52.480;6.056;2023-02-28T01:17:37;5.72;;;3.25;;
60014;SDS011;45867;52.480;6.056;2023-02-28T01:20:03;10.02;;;3.70;;
60014;SDS011;45867;52.480;6.056;2023-02-28T01:22:29;7.10;;;2.95;;
60014;SDS011;45867;52.480;6.056;2023-02-28T01:24:54;8.25;;;3.78;;
60014;SDS011;45867;52.480;6.056;2023-02-28T01:27:19;7.18;;;3.03;;
60014;SDS011;45867;52.480;6.056;2023-02-28T01:29:45;9.50;;;2.97;;
60014;SDS011;45867;52.480;6.056;2023-02-28T01:32:10;9.18;;;3.30;;
60014;SDS011;45867;52.480;6.056;2023-02-28T01:34:36;8.40;;;3.45;;
60014;SDS011;45867;52.480;6.056;2023-02-28T01:37:01;6.70;;;3.20;;
60014;SDS011;45867;52.480;6.056;2023-02-28T01:39:28;14.18;;;3.30;;
60014;SDS011;45867;52.480;6.056;2023-02-28T01:41:53;10.90;;;3.60;;
60014;SDS011;45867;52.480;6.056;2023-02-28T01:47:20;7.40;;;3.58;;
60014;SDS011;45867;52.480;6.056;2023-02-28T01:49:47;9.65;;;3.25;;
60014;SDS011;45867;52.480;6.056;2023-02-28T01:52:13;10.52;;;3.58;;
60014;SDS011;45867;52.480;6.056;2023-02-28T01:54:44;7.40;;;3.70;;
60014;SDS011;45867;52.480;6.056;2023-02-28T01:57:14;13.20;;;4.00;;
60014;SDS011;45867;52.480;6.056;2023-02-28T01:59:46;10.05;;;3.65;;
60014;SDS011;45867;52.480;6.056;2023-02-28T02:02:16;10.13;;;3.50;;
60014;SDS011;45867;52.480;6.056;2023-02-28T02:04:53;8.82;;;3.47;;
60014;SDS011;45867;52.480;6.056;2023-02-28T02:07:22;11.85;;;3.80;;
60014;SDS011;45867;52.480;6.056;2023-02-28T02:09:49;5.93;;;2.92;;
60014;SDS011;45867;52.480;6.056;2023-02-28T02:12:27;8.73;;;3.53;;
60014;SDS011;45867;52.480;6.056;2023-02-28T02:15:05;8.48;;;3.30;;
60014;SDS011;45867;52.480;6.056;2023-02-28T02:17:42;10.02;;;3.70;;
60014;SDS011;45867;52.480;6.056;2023-02-28T02:20:36;8.13;;;3.38;;
60014;SDS011;45867;52.480;6.056;2023-02-28T02:32:08;7.18;;;3.72;;
60014;SDS011;45867;52.480;6.056;2023-02-28T02:40:22;10.55;;;3.65;;
60014;SDS011;45867;52.480;6.056;2023-02-28T02:46:18;10.50;;;4.28;;
60014;SDS011;45867;52.480;6.056;2023-02-28T02:48:46;9.88;;;4.50;;
60014;SDS011;45867;52.480;6.056;2023-02-28T02:51:16;12.00;;;4.28;;
60014;SDS011;45867;52.480;6.056;2023-02-28T02:56:14;11.50;;;4.47;;
60014;SDS011;45867;52.480;6.056;2023-02-28T02:58:43;9.35;;;4.53;;
60014;SDS011;45867;52.480;6.056;2023-02-28T03:01:14;13.57;;;4.57;;
60014;SDS011;45867;52.480;6.056;2023-02-28T03:03:52;10.32;;;5.30;;
60014;SDS011;45867;52.480;6.056;2023-02-28T03:06:20;11.85;;;5.45;;
60014;SDS011;45867;52.480;6.056;2023-02-28T03:08:45;10.93;;;6.10;;
60014;SDS011;45867;52.480;6.056;2023-02-28T03:11:12;15.30;;;6.45;;
60014;SDS011;45867;52.480;6.056;2023-02-28T03:16:20;11.32;;;6.03;;
60014;SDS011;45867;52.480;6.056;2023-02-28T03:27:35;11.25;;;6.38;;
60014;SDS011;45867;52.480;6.056;2023-02-28T03:30:10;18.40;;;7.50;;
60014;SDS011;45867;52.480;6.056;2023-02-28T03:32:53;12.20;;;6.82;;
60014;SDS011;45867;52.480;6.056;2023-02-28T03:35:27;14.85;;;7.10;;
60014;SDS011;45867;52.480;6.056;2023-02-28T03:38:01;13.77;;;6.95;;
60014;SDS011;45867;52.480;6.056;2023-02-28T03:40:34;14.25;;;7.03;;
60014;SDS011;45867;52.480;6.056;2023-02-28T03:43:07;16.65;;;7.32;;
60014;SDS011;45867;52.480;6.056;2023-02-28T03:45:37;15.27;;;7.45;;
60014;SDS011;45867;52.480;6.056;2023-02-28T03:48:09;13.90;;;7.45;;
60014;SDS011;45867;52.480;6.056;2023-02-28T03:50:41;15.10;;;7.35;;
60014;SDS011;45867;52.480;6.056;2023-02-28T03:56:14;13.05;;;6.55;;
60014;SDS011;45867;52.480;6.056;2023-02-28T03:58:57;17.92;;;6.53;;
60014;SDS011;45867;52.480;6.056;2023-02-28T04:04:04;12.93;;;7.32;;
60014;SDS011;45867;52.480;6.056;2023-02-28T04:06:31;14.30;;;7.03;;
60014;SDS011;45867;52.480;6.056;2023-02-28T04:08:58;15.88;;;6.55;;
60014;SDS011;45867;52.480;6.056;2023-02-28T04:14:01;17.95;;;6.57;;
60014;SDS011;45867;52.480;6.056;2023-02-28T04:16:27;15.63;;;6.80;;
60014;SDS011;45867;52.480;6.056;2023-02-28T04:18:54;10.65;;;5.95;;
60014;SDS011;45867;52.480;6.056;2023-02-28T04:21:26;8.82;;;4.97;;
60014;SDS011;45867;52.480;6.056;2023-02-28T04:23:55;12.43;;;5.40;;
60014;SDS011;45867;52.480;6.056;2023-02-28T04:26:25;14.70;;;5.63;;
60014;SDS011;45867;52.480;6.056;2023-02-28T04:28:52;12.02;;;6.20;;
60014;SDS011;45867;52.480;6.056;2023-02-28T04:31:18;14.60;;;5.70;;
60014;SDS011;45867;52.480;6.056;2023-02-28T04:33:43;14.02;;;6.18;;
60014;SDS011;45867;52.480;6.056;2023-02-28T04:36:08;9.98;;;5.38;;
60014;SDS011;45867;52.480;6.056;2023-02-28T04:38:35;9.77;;;5.50;;
60014;SDS011;45867;52.480;6.056;2023-02-28T04:41:01;8.00;;;4.65;;
60014;SDS011;45867;52.480;6.056;2023-02-28T04:43:27;9.32;;;3.83;;
60014;SDS011;45867;52.480;6.056;2023-02-28T04:45:53;6.85;;;4.07;;
60014;SDS011;45867;52.480;6.056;2023-02-28T04:48:30;7.82;;;4.10;;
60014;SDS011;45867;52.480;6.056;2023-02-28T04:51:15;6.40;;;3.40;;
60014;SDS011;45867;52.480;6.056;2023-02-28T04:53:42;6.38;;;3.00;;
60014;SDS011;45867;52.480;6.056;2023-02-28T04:56:08;4.97;;;3.42;;
60014;SDS011;45867;52.480;6.056;2023-02-28T04:58:37;11.98;;;3.47;;
60014;SDS011;45867;52.480;6.056;2023-02-28T05:01:06;6.72;;;3.88;;
60014;SDS011;45867;52.480;6.056;2023-02-28T05:03:41;6.78;;;3.53;;
60014;SDS011;45867;52.480;6.056;2023-02-28T05:06:07;7.80;;;3.55;;
60014;SDS011;45867;52.480;6.056;2023-02-28T05:08:33;6.18;;;3.28;;
60014;SDS011;45867;52.480;6.056;2023-02-28T05:10:59;7.60;;;3.28;;
60014;SDS011;45867;52.480;6.056;2023-02-28T05:13:25;6.90;;;3.83;;
60014;SDS011;45867;52.480;6.056;2023-02-28T05:15:51;9.65;;;3.00;;
60014;SDS011;45867;52.480;6.056;2023-02-28T05:18:17;8.20;;;3.45;;
60014;SDS011;45867;52.480;6.056;2023-02-28T05:20:42;9.18;;;3.67;;
60014;SDS011;45867;52.480;6.056;2023-02-28T05:23:07;6.82;;;3.55;;
60014;SDS011;45867;52.480;6.056;2023-02-28T05:25:36;7.25;;;3.65;;
60014;SDS011;45867;52.480;6.056;2023-02-28T05:28:01;6.72;;;3.75;;
60014;SDS011;45867;52.480;6.056;2023-02-28T05:30:27;17.25;;;3.55;;
60014;SDS011;45867;52.480;6.056;2023-02-28T05:32:52;9.35;;;3.78;;
60014;SDS011;45867;52.480;6.056;2023-02-28T05:35:17;11.05;;;3.78;;
60014;SDS011;45867;52.480;6.056;2023-02-28T05:37:43;8.20;;;3.58;;
60014;SDS011;45867;52.480;6.056;2023-02-28T05:40:08;7.72;;;4.10;;
60014;SDS011;45867;52.480;6.056;2023-02-28T05:42:37;11.95;;;4.00;;
60014;SDS011;45867;52.480;6.056;2023-02-28T05:45:03;7.20;;;3.97;;
60014;SDS011;45867;52.480;6.056;2023-02-28T05:47:30;7.22;;;3.70;;
60014;SDS011;45867;52.480;6.056;2023-02-28T05:49:55;9.93;;;4.05;;
60014;SDS011;45867;52.480;6.056;2023-02-28T05:52:21;6.78;;;3.90;;
60014;SDS011;45867;52.480;6.056;2023-02-28T05:54:46;7.03;;;3.63;;
60014;SDS011;45867;52.480;6.056;2023-02-28T05:57:12;6.50;;;3.92;;
60014;SDS011;45867;52.480;6.056;2023-02-28T05:59:38;8.07;;;3.88;;
60014;SDS011;45867;52.480;6.056;2023-02-28T06:02:05;6.57;;;3.75;;
60014;SDS011;45867;52.480;6.056;2023-02-28T06:04:35;7.20;;;3.60;;
60014;SDS011;45867;52.480;6.056;2023-02-28T06:07:00;10.02;;;3.95;;
60014;SDS011;45867;52.480;6.056;2023-02-28T06:09:26;8.60;;;4.07;;
60014;SDS011;45867;52.480;6.056;2023-02-28T06:11:52;9.02;;;3.85;;
60014;SDS011;45867;52.480;6.056;2023-02-28T06:14:18;7.68;;;4.38;;
60014;SDS011;45867;52.480;6.056;2023-02-28T06:16:44;8.27;;;4.13;;
60014;SDS011;45867;52.480;6.056;2023-02-28T06:19:10;11.35;;;4.50;;
60014;SDS011;45867;52.480;6.056;2023-02-28T06:21:36;7.90;;;4.85;;
60014;SDS011;45867;52.480;6.056;2023-02-28T06:24:01;9.20;;;4.57;;
60014;SDS011;45867;52.480;6.056;2023-02-28T06:26:27;9.45;;;4.45;;
60014;SDS011;45867;52.480;6.056;2023-02-28T06:28:52;8.43;;;4.20;;
60014;SDS011;45867;52.480;6.056;2023-02-28T06:31:18;8.18;;;3.88;;
60014;SDS011;45867;52.480;6.056;2023-02-28T06:33:44;6.75;;;4.05;;
60014;SDS011;45867;52.480;6.056;2023-02-28T06:36:11;7.10;;;4.30;;
60014;SDS011;45867;52.480;6.056;2023-02-28T06:38:37;7.88;;;4.28;;
60014;SDS011;45867;52.480;6.056;2023-02-28T06:41:03;11.02;;;4.70;;
60014;SDS011;45867;52.480;6.056;2023-02-28T06:43:31;6.75;;;3.90;;
60014;SDS011;45867;52.480;6.056;2023-02-28T06:45:59;11.50;;;4.82;;
60014;SDS011;45867;52.480;6.056;2023-02-28T06:48:27;7.43;;;4.57;;
60014;SDS011;45867;52.480;6.056;2023-02-28T06:51:00;10.55;;;4.70;;
60014;SDS011;45867;52.480;6.056;2023-02-28T06:53:30;7.85;;;4.55;;
60014;SDS011;45867;52.480;6.056;2023-02-28T06:55:55;6.75;;;4.22;;
60014;SDS011;45867;52.480;6.056;2023-02-28T06:58:21;9.23;;;4.50;;
60014;SDS011;45867;52.480;6.056;2023-02-28T07:00:49;7.95;;;4.80;;
60014;SDS011;45867;52.480;6.056;2023-02-28T07:03:17;11.05;;;4.78;;
60014;SDS011;45867;52.480;6.056;2023-02-28T07:05:43;12.82;;;4.47;;
60014;SDS011;45867;52.480;6.056;2023-02-28T07:08:09;8.35;;;5.05;;
60014;SDS011;45867;52.480;6.056;2023-02-28T07:10:36;12.02;;;5.00;;
60014;SDS011;45867;52.480;6.056;2023-02-28T07:13:03;10.90;;;5.22;;
60014;SDS011;45867;52.480;6.056;2023-02-28T07:15:28;9.18;;;5.68;;
60014;SDS011;45867;52.480;6.056;2023-02-28T07:17:54;10.57;;;6.13;;
60014;SDS011;45867;52.480;6.056;2023-02-28T07:20:19;9.82;;;5.40;;
60014;SDS011;45867;52.480;6.056;2023-02-28T07:22:45;12.30;;;6.05;;
60014;SDS011;45867;52.480;6.056;2023-02-28T07:25:10;10.70;;;5.63;;
60014;SDS011;45867;52.480;6.056;2023-02-28T07:27:36;9.68;;;4.75;;
60014;SDS011;45867;52.480;6.056;2023-02-28T07:30:01;9.90;;;5.15;;
60014;SDS011;45867;52.480;6.056;2023-02-28T07:32:28;7.00;;;4.95;;
60014;SDS011;45867;52.480;6.056;2023-02-28T07:34:54;11.75;;;5.28;;
60014;SDS011;45867;52.480;6.056;2023-02-28T07:37:20;9.63;;;5.20;;
60014;SDS011;45867;52.480;6.056;2023-02-28T07:39:45;9.35;;;5.20;;
60014;SDS011;45867;52.480;6.056;2023-02-28T07:42:13;7.97;;;5.03;;
60014;SDS011;45867;52.480;6.056;2023-02-28T07:44:39;8.98;;;4.85;;
60014;SDS011;45867;52.480;6.056;2023-02-28T07:47:08;12.48;;;5.90;;
60014;SDS011;45867;52.480;6.056;2023-02-28T07:49:36;7.88;;;5.13;;
60014;SDS011;45867;52.480;6.056;2023-02-28T07:52:06;8.95;;;5.32;;
60014;SDS011;45867;52.480;6.056;2023-02-28T07:54:32;10.27;;;5.57;;
60014;SDS011;45867;52.480;6.056;2023-02-28T07:56:58;11.43;;;5.40;;
60014;SDS011;45867;52.480;6.056;2023-02-28T07:59:23;9.00;;;5.70;;
60014;SDS011;45867;52.480;6.056;2023-02-28T08:01:49;10.70;;;5.53;;
60014;SDS011;45867;52.480;6.056;2023-02-28T08:04:15;10.73;;;5.80;;
60014;SDS011;45867;52.480;6.056;2023-02-28T08:06:41;9.15;;;5.22;;
60014;SDS011;45867;52.480;6.056;2023-02-28T08:09:07;12.20;;;5.05;;
60014;SDS011;45867;52.480;6.056;2023-02-28T08:11:32;8.07;;;4.57;;
60014;SDS011;45867;52.480;6.056;2023-02-28T08:13:58;8.63;;;4.90;;
60014;SDS011;45867;52.480;6.056;2023-02-28T08:16:23;9.88;;;5.30;;
60014;SDS011;45867;52.480;6.056;2023-02-28T08:18:49;8.75;;;4.95;;
60014;SDS011;45867;52.480;6.056;2023-02-28T08:21:15;9.65;;;5.40;;
60014;SDS011;45867;52.480;6.056;2023-02-28T08:23:41;7.68;;;4.88;;
60014;SDS011;45867;52.480;6.056;2023-02-28T08:26:08;8.95;;;5.50;;
60014;SDS011;45867;52.480;6.056;2023-02-28T08:28:33;8.75;;;4.72;;
60014;SDS011;45867;52.480;6.056;2023-02-28T08:30:58;12.35;;;5.47;;
60014;SDS011;45867;52.480;6.056;2023-02-28T08:33:24;8.60;;;4.93;;
60014;SDS011;45867;52.480;6.056;2023-02-28T08:35:53;7.95;;;4.90;;
60014;SDS011;45867;52.480;6.056;2023-02-28T08:38:19;6.65;;;3.85;;
60014;SDS011;45867;52.480;6.056;2023-02-28T08:40:45;10.48;;;4.72;;
60014;SDS011;45867;52.480;6.056;2023-02-28T08:43:10;15.07;;;5.03;;
60014;SDS011;45867;52.480;6.056;2023-02-28T08:45:36;7.18;;;3.88;;
60014;SDS011;45867;52.480;6.056;2023-02-28T08:48:01;8.52;;;4.18;;
60014;SDS011;45867;52.480;6.056;2023-02-28T08:50:26;6.95;;;4.05;;
60014;SDS011;45867;52.480;6.056;2023-02-28T08:52:52;8.63;;;4.30;;
60014;SDS011;45867;52.480;6.056;2023-02-28T08:55:17;8.57;;;4.70;;
60014;SDS011;45867;52.480;6.056;2023-02-28T08:57:43;8.65;;;4.43;;
60014;SDS011;45867;52.480;6.056;2023-02-28T09:00:08;12.63;;;4.90;;
60014;SDS011;45867;52.480;6.056;2023-02-28T09:02:35;9.52;;;4.55;;
60014;SDS011;45867;52.480;6.056;2023-02-28T09:05:01;6.53;;;4.20;;
60014;SDS011;45867;52.480;6.056;2023-02-28T09:07:28;15.07;;;4.43;;
60014;SDS011;45867;52.480;6.056;2023-02-28T09:09:53;10.00;;;4.47;;
60014;SDS011;45867;52.480;6.056;2023-02-28T09:12:19;7.43;;;4.00;;
60014;SDS011;45867;52.480;6.056;2023-02-28T09:14:48;5.97;;;3.95;;
60014;SDS011;45867;52.480;6.056;2023-02-28T09:17:13;5.82;;;3.80;;
60014;SDS011;45867;52.480;6.056;2023-02-28T09:19:39;8.05;;;3.20;;
60014;SDS011;45867;52.480;6.056;2023-02-28T09:22:04;7.45;;;3.80;;
60014;SDS011;45867;52.480;6.056;2023-02-28T09:24:29;5.95;;;3.40;;
60014;SDS011;45867;52.480;6.056;2023-02-28T09:26:56;6.00;;;3.22;;
60014;SDS011;45867;52.480;6.056;2023-02-28T09:29:21;4.95;;;3.30;;
60014;SDS011;45867;52.480;6.056;2023-02-28T09:31:47;6.45;;;2.72;;
60014;SDS011;45867;52.480;6.056;2023-02-28T09:34:12;5.00;;;2.72;;
60014;SDS011;45867;52.480;6.056;2023-02-28T09:36:37;4.38;;;2.70;;
60014;SDS011;45867;52.480;6.056;2023-02-28T09:39:03;3.60;;;1.95;;
60014;SDS011;45867;52.480;6.056;2023-02-28T09:41:29;3.35;;;2.10;;
60014;SDS011;45867;52.480;6.056;2023-02-28T09:44:17;3.08;;;2.00;;
60014;SDS011;45867;52.480;6.056;2023-02-28T09:47:04;4.72;;;2.00;;
60014;SDS011;45867;52.480;6.056;2023-02-28T09:49:43;4.78;;;2.22;;
60014;SDS011;45867;52.480;6.056;2023-02-28T09:52:30;2.28;;;1.70;;
60014;SDS011;45867;52.480;6.056;2023-02-28T09:55:18;5.38;;;2.45;;
60014;SDS011;45867;52.480;6.056;2023-02-28T09:57:47;6.53;;;3.20;;
60014;SDS011;45867;52.480;6.056;2023-02-28T10:00:21;4.07;;;2.58;;
60014;SDS011;45867;52.480;6.056;2023-02-28T10:05:30;5.43;;;2.65;;
60014;SDS011;45867;52.480;6.056;2023-02-28T10:11:27;5.93;;;2.88;;
60014;SDS011;45867;52.480;6.056;2023-02-28T10:13:56;4.85;;;2.80;;
60014;SDS011;45867;52.480;6.056;2023-02-28T10:25:17;4.43;;;2.60;;
60014;SDS011;45867;52.480;6.056;2023-02-28T10:27:44;4.72;;;2.70;;
60014;SDS011;45867;52.480;6.056;2023-02-28T10:30:10;3.75;;;2.25;;
60014;SDS011;45867;52.480;6.056;2023-02-28T10:32:38;4.07;;;1.98;;
60014;SDS011;45867;52.480;6.056;2023-02-28T10:37:43;3.90;;;2.60;;
60014;SDS011;45867;52.480;6.056;2023-02-28T10:43:17;3.40;;;2.10;;
60014;SDS011;45867;52.480;6.056;2023-02-28T10:45:39;5.40;;;2.20;;
60014;SDS011;45867;52.480;6.056;2023-02-28T10:53:25;2.53;;;1.90;;
60014;SDS011;45867;52.480;6.056;2023-02-28T11:01:35;3.92;;;2.40;;
60014;SDS011;45867;52.480;6.056;2023-02-28T11:04:50;3.75;;;2.00;;
60014;SDS011;45867;52.480;6.056;2023-02-28T11:07:06;3.78;;;2.13;;
60014;SDS011;45867;52.480;6.056;2023-02-28T11:09:46;3.53;;;2.10;;
60014;SDS011;45867;52.480;6.056;2023-02-28T11:12:25;4.80;;;2.08;;
60014;SDS011;45867;52.480;6.056;2023-02-28T11:14:55;3.67;;;2.30;;
60014;SDS011;45867;52.480;6.056;2023-02-28T11:17:24;4.03;;;2.13;;
60014;SDS011;45867;52.480;6.056;2023-02-28T11:19:55;5.90;;;2.88;;
60014;SDS011;45867;52.480;6.056;2023-02-28T11:22:24;4.18;;;2.30;;
60014;SDS011;45867;52.480;6.056;2023-02-28T11:27:25;4.13;;;2.28;;
60014;SDS011;45867;52.480;6.056;2023-02-28T11:30:00;5.90;;;2.60;;
60014;SDS011;45867;52.480;6.056;2023-02-28T11:32:29;4.13;;;2.40;;
60014;SDS011;45867;52.480;6.056;2023-02-28T11:35:00;6.13;;;2.72;;
60014;SDS011;45867;52.480;6.056;2023-02-28T11:37:35;4.82;;;2.70;;
60014;SDS011;45867;52.480;6.056;2023-02-28T11:40:01;3.92;;;2.50;;
60014;SDS011;45867;52.480;6.056;2023-02-28T11:42:47;4.50;;;2.33;;
60014;SDS011;45867;52.480;6.056;2023-02-28T11:48:39;5.50;;;2.67;;
60014;SDS011;45867;52.480;6.056;2023-02-28T11:56:55;6.53;;;2.88;;
60014;SDS011;45867;52.480;6.056;2023-02-28T12:05:10;4.15;;;2.22;;
60014;SDS011;45867;52.480;6.056;2023-02-28T12:07:42;6.63;;;3.70;;
60014;SDS011;45867;52.480;6.056;2023-02-28T12:10:29;3.40;;;2.45;;
60014;SDS011;45867;52.480;6.056;2023-02-28T12:26:49;3.38;;;2.20;;
60014;SDS011;45867;52.480;6.056;2023-02-28T12:34:44;3.38;;;2.10;;
60014;SDS011;45867;52.480;6.056;2023-02-28T12:37:22;4.22;;;2.17;;
60014;SDS011;45867;52.480;6.056;2023-02-28T12:39:55;4.00;;;2.20;;
60014;SDS011;45867;52.480;6.056;2023-02-28T12:42:27;2.85;;;2.20;;
60014;SDS011;45867;52.480;6.056;2023-02-28T12:45:02;3.67;;;2.33;;
60014;SDS011;45867;52.480;6.056;2023-02-28T12:47:33;5.53;;;2.47;;
60014;SDS011;45867;52.480;6.056;2023-02-28T12:50:00;4.72;;;2.55;;
60014;SDS011;45867;52.480;6.056;2023-02-28T12:52:37;5.03;;;2.28;;
60014;SDS011;45867;52.480;6.056;2023-02-28T12:55:06;5.30;;;2.80;;
60014;SDS011;45867;52.480;6.056;2023-02-28T12:57:45;4.72;;;2.40;;
60014;SDS011;45867;52.480;6.056;2023-02-28T13:00:16;3.45;;;2.35;;
60014;SDS011;45867;52.480;6.056;2023-02-28T13:05:39;3.95;;;2.40;;
60014;SDS011;45867;52.480;6.056;2023-02-28T13:11:03;4.90;;;2.40;;
60014;SDS011;45867;52.480;6.056;2023-02-28T13:13:29;2.72;;;2.05;;
60014;SDS011;45867;52.480;6.056;2023-02-28T13:15:56;5.93;;;2.22;;
60014;SDS011;45867;52.480;6.056;2023-02-28T13:18:44;4.47;;;2.60;;
60014;SDS011;45867;52.480;6.056;2023-02-28T13:21:24;3.83;;;2.35;;
60014;SDS011;45867;52.480;6.056;2023-02-28T13:26:31;3.83;;;2.20;;
60014;SDS011;45867;52.480;6.056;2023-02-28T13:34:31;6.40;;;2.50;;
60014;SDS011;45867;52.480;6.056;2023-02-28T13:39:57;6.05;;;2.33;;
60014;SDS011;45867;52.480;6.056;2023-02-28T13:42:33;3.22;;;2.25;;
60014;SDS011;45867;52.480;6.056;2023-02-28T13:47:28;3.30;;;2.20;;
60014;SDS011;45867;52.480;6.056;2023-02-28T13:53:20;5.38;;;2.35;;
60014;SDS011;45867;52.480;6.056;2023-02-28T13:59:31;5.18;;;2.60;;
60014;SDS011;45867;52.480;6.056;2023-02-28T14:07:22;3.25;;;2.28;;
60014;SDS011;45867;52.480;6.056;2023-02-28T14:09:56;4.55;;;2.47;;
60014;SDS011;45867;52.480;6.056;2023-02-28T14:17:57;4.32;;;2.53;;
60014;SDS011;45867;52.480;6.056;2023-02-28T14:20:27;3.22;;;2.30;;
60014;SDS011;45867;52.480;6.056;2023-02-28T14:28:44;4.28;;;2.70;;
60014;SDS011;45867;52.480;6.056;2023-02-28T14:31:34;4.35;;;2.58;;
60014;SDS011;45867;52.480;6.056;2023-02-28T14:37:00;4.25;;;2.40;;
60014;SDS011;45867;52.480;6.056;2023-02-28T14:39:28;5.03;;;2.65;;
60014;SDS011;45867;52.480;6.056;2023-02-28T14:41:56;4.03;;;2.50;;
60014;SDS011;45867;52.480;6.056;2023-02-28T14:44:24;3.38;;;2.25;;
60014;SDS011;45867;52.480;6.056;2023-02-28T14:46:54;8.48;;;2.97;;
60014;SDS011;45867;52.480;6.056;2023-02-28T14:49:26;6.60;;;2.78;;
60014;SDS011;45867;52.480;6.056;2023-02-28T14:54:35;4.68;;;2.65;;
60014;SDS011;45867;52.480;6.056;2023-02-28T14:57:01;6.43;;;2.50;;
60014;SDS011;45867;52.480;6.056;2023-02-28T14:59:30;4.50;;;2.75;;
60014;SDS011;45867;52.480;6.056;2023-02-28T15:05:00;3.90;;;2.72;;
60014;SDS011;45867;52.480;6.056;2023-02-28T15:07:48;5.80;;;2.78;;
60014;SDS011;45867;52.480;6.056;2023-02-28T15:10:26;5.20;;;3.22;;
60014;SDS011;45867;52.480;6.056;2023-02-28T15:12:59;4.03;;;2.78;;
60014;SDS011;45867;52.480;6.056;2023-02-28T15:18:07;4.53;;;2.80;;
60014;SDS011;45867;52.480;6.056;2023-02-28T15:20:40;5.70;;;3.00;;
60014;SDS011;45867;52.480;6.056;2023-02-28T15:23:07;5.40;;;2.85;;
60014;SDS011;45867;52.480;6.056;2023-02-28T15:25:34;9.02;;;3.17;;
60014;SDS011;45867;52.480;6.056;2023-02-28T15:27:59;4.45;;;2.80;;
60014;SDS011;45867;52.480;6.056;2023-02-28T15:30:26;5.35;;;3.10;;
60014;SDS011;45867;52.480;6.056;2023-02-28T15:33:15;4.97;;;2.75;;
60014;SDS011;45867;52.480;6.056;2023-02-28T15:35:44;6.90;;;3.40;;
60014;SDS011;45867;52.480;6.056;2023-02-28T15:40:53;5.15;;;3.20;;
60014;SDS011;45867;52.480;6.056;2023-02-28T15:43:25;4.63;;;2.97;;
60014;SDS011;45867;52.480;6.056;2023-02-28T15:48:28;8.90;;;3.77;;
60014;SDS011;45867;52.480;6.056;2023-02-28T15:51:06;5.53;;;3.10;;
60014;SDS011;45867;52.480;6.056;2023-02-28T15:56:25;5.45;;;3.38;;
60014;SDS011;45867;52.480;6.056;2023-02-28T15:58:56;5.55;;;3.20;;
60014;SDS011;45867;52.480;6.056;2023-02-28T16:01:24;5.10;;;3.28;;
60014;SDS011;45867;52.480;6.056;2023-02-28T16:04:15;7.63;;;3.40;;
60014;SDS011;45867;52.480;6.056;2023-02-28T16:06:46;5.75;;;3.30;;
60014;SDS011;45867;52.480;6.056;2023-02-28T16:11:52;5.90;;;3.20;;
60014;SDS011;45867;52.480;6.056;2023-02-28T16:14:22;6.32;;;3.10;;
60014;SDS011;45867;52.480;6.056;2023-02-28T16:16:50;4.90;;;3.33;;
60014;SDS011;45867;52.480;6.056;2023-02-28T16:19:17;5.97;;;3.30;;
60014;SDS011;45867;52.480;6.056;2023-02-28T16:21:43;5.03;;;3.20;;
60014;SDS011;45867;52.480;6.056;2023-02-28T16:24:09;5.35;;;3.55;;
60014;SDS011;45867;52.480;6.056;2023-02-28T16:26:34;5.55;;;3.47;;
60014;SDS011;45867;52.480;6.056;2023-02-28T16:29:02;6.00;;;3.60;;
60014;SDS011;45867;52.480;6.056;2023-02-28T16:31:30;5.82;;;3.55;;
60014;SDS011;45867;52.480;6.056;2023-02-28T16:34:00;7.32;;;3.25;;
60014;SDS011;45867;52.480;6.056;2023-02-28T16:36:25;6.43;;;3.70;;
60014;SDS011;45867;52.480;6.056;2023-02-28T16:38:51;7.07;;;3.72;;
60014;SDS011;45867;52.480;6.056;2023-02-28T16:41:21;7.78;;;3.72;;
60014;SDS011;45867;52.480;6.056;2023-02-28T16:43:49;7.07;;;3.88;;
60014;SDS011;45867;52.480;6.056;2023-02-28T16:46:17;4.78;;;3.40;;
60014;SDS011;45867;52.480;6.056;2023-02-28T16:48:44;6.03;;;3.67;;
60014;SDS011;45867;52.480;6.056;2023-02-28T16:51:13;7.20;;;3.70;;
60014;SDS011;45867;52.480;6.056;2023-02-28T16:53:40;8.35;;;4.07;;
60014;SDS011;45867;52.480;6.056;2023-02-28T16:56:08;7.32;;;4.05;;
60014;SDS011;45867;52.480;6.056;2023-02-28T16:58:40;6.20;;;4.00;;
60014;SDS011;45867;52.480;6.056;2023-02-28T17:01:05;6.85;;;3.80;;
60014;SDS011;45867;52.480;6.056;2023-02-28T17:03:30;8.13;;;4.18;;
60014;SDS011;45867;52.480;6.056;2023-02-28T17:05:56;8.68;;;4.10;;
60014;SDS011;45867;52.480;6.056;2023-02-28T17:08:21;8.00;;;4.18;;
60014;SDS011;45867;52.480;6.056;2023-02-28T17:10:46;7.85;;;4.05;;
60014;SDS011;45867;52.480;6.056;2023-02-28T17:13:12;6.03;;;4.05;;
60014;SDS011;45867;52.480;6.056;2023-02-28T17:15:37;8.07;;;4.10;;
60014;SDS011;45867;52.480;6.056;2023-02-28T17:18:04;6.47;;;3.83;;
60014;SDS011;45867;52.480;6.056;2023-02-28T17:20:30;6.55;;;4.13;;
60014;SDS011;45867;52.480;6.056;2023-02-28T17:22:55;7.22;;;4.55;;
60014;SDS011;45867;52.480;6.056;2023-02-28T17:25:21;7.70;;;4.43;;
60014;SDS011;45867;52.480;6.056;2023-02-28T17:27:48;7.68;;;4.28;;
60014;SDS011;45867;52.480;6.056;2023-02-28T17:32:43;8.55;;;4.20;;
60014;SDS011;45867;52.480;6.056;2023-02-28T17:35:09;10.25;;;4.82;;
60014;SDS011;45867;52.480;6.056;2023-02-28T17:37:35;9.65;;;4.43;;
60014;SDS011;45867;52.480;6.056;2023-02-28T17:40:00;10.25;;;5.43;;
60014;SDS011;45867;52.480;6.056;2023-02-28T17:42:26;8.52;;;4.22;;
60014;SDS011;45867;52.480;6.056;2023-02-28T17:44:51;7.47;;;4.60;;
60014;SDS011;45867;52.480;6.056;2023-02-28T17:47:16;10.50;;;5.38;;
60014;SDS011;45867;52.480;6.056;2023-02-28T17:49:42;10.40;;;5.57;;
60014;SDS011;45867;52.480;6.056;2023-02-28T17:52:07;7.53;;;5.00;;
60014;SDS011;45867;52.480;6.056;2023-02-28T17:54:33;10.63;;;4.43;;